sensor_id;sensor_type;location;lat;lon;timestamp;temperature;humidity
11532;DHT22;5822;51.000;5.874;2022-10-20T00:00:55;15.00;99.90
11532;DHT22;5822;51.000;5.874;2022-10-20T00:03:21;15.00;99.90
11532;DHT22;5822;51.000;5.874;2022-10-20T00:05:47;15.00;99.90
11532;DHT22;5822;51.000;5.874;2022-10-20T00:08:13;15.00;99.90
11532;DHT22;5822;51.000;5.874;2022-10-20T00:10:39;15.00;99.90
11532;DHT22;5822;51.000;5.874;2022-10-20T00:13:04;15.00;99.90
11532;DHT22;5822;51.000;5.874;2022-10-20T00:15:30;15.00;99.90
11532;DHT22;5822;51.000;5.874;2022-10-20T00:17:56;15.00;99.90
11532;DHT22;5822;51.000;5.874;2022-10-20T00:20:22;15.00;99.90
11532;DHT22;5822;51.000;5.874;2022-10-20T00:22:48;15.00;99.90
11532;DHT22;5822;51.000;5.874;2022-10-20T00:25:13;15.00;99.90
11532;DHT22;5822;51.000;5.874;2022-10-20T00:27:39;15.00;99.90
11532;DHT22;5822;51.000;5.874;2022-10-20T00:30:05;15.00;99.90
11532;DHT22;5822;51.000;5.874;2022-10-20T00:32:31;15.00;99.90
11532;DHT22;5822;51.000;5.874;2022-10-20T00:34:56;15.00;99.90
11532;DHT22;5822;51.000;5.874;2022-10-20T00:37:22;15.00;99.90
11532;DHT22;5822;51.000;5.874;2022-10-20T00:39:47;15.00;99.90
11532;DHT22;5822;51.000;5.874;2022-10-20T00:42:18;15.10;99.90
11532;DHT22;5822;51.000;5.874;2022-10-20T00:44:54;15.00;99.90
11532;DHT22;5822;51.000;5.874;2022-10-20T00:49:47;15.00;99.90
11532;DHT22;5822;51.000;5.874;2022-10-20T00:52:14;15.00;99.90
11532;DHT22;5822;51.000;5.874;2022-10-20T00:54:42;15.00;99.90
11532;DHT22;5822;51.000;5.874;2022-10-20T00:57:08;15.00;99.90
11532;DHT22;5822;51.000;5.874;2022-10-20T00:59:35;15.00;99.90
11532;DHT22;5822;51.000;5.874;2022-10-20T01:02:02;15.00;99.90
11532;DHT22;5822;51.000;5.874;2022-10-20T01:04:30;15.00;99.90
11532;DHT22;5822;51.000;5.874;2022-10-20T01:06:56;15.00;99.90
11532;DHT22;5822;51.000;5.874;2022-10-20T01:09:22;15.00;99.90
11532;DHT22;5822;51.000;5.874;2022-10-20T01:20:22;15.00;99.90
11532;DHT22;5822;51.000;5.874;2022-10-20T01:25:38;15.00;99.90
11532;DHT22;5822;51.000;5.874;2022-10-20T01:28:34;14.90;99.90
11532;DHT22;5822;51.000;5.874;2022-10-20T01:31:08;14.90;99.90
11532;DHT22;5822;51.000;5.874;2022-10-20T01:33:45;14.90;99.90
11532;DHT22;5822;51.000;5.874;2022-10-20T01:36:19;15.00;99.90
11532;DHT22;5822;51.000;5.874;2022-10-20T01:38:51;15.00;99.90
11532;DHT22;5822;51.000;5.874;2022-10-20T01:43:50;14.90;99.90
11532;DHT22;5822;51.000;5.874;2022-10-20T01:46:18;14.90;99.90
11532;DHT22;5822;51.000;5.874;2022-10-20T01:48:46;14.90;99.90
11532;DHT22;5822;51.000;5.874;2022-10-20T01:51:12;14.90;99.90
11532;DHT22;5822;51.000;5.874;2022-10-20T01:53:38;14.90;99.90
11532;DHT22;5822;51.000;5.874;2022-10-20T01:56:04;14.90;99.90
11532;DHT22;5822;51.000;5.874;2022-10-20T01:59:01;14.90;99.90
11532;DHT22;5822;51.000;5.874;2022-10-20T02:04:22;14.90;99.90
11532;DHT22;5822;51.000;5.874;2022-10-20T02:07:00;14.80;99.90
11532;DHT22;5822;51.000;5.874;2022-10-20T02:09:32;14.80;99.90
11532;DHT22;5822;51.000;5.874;2022-10-20T02:12:05;14.80;99.90
11532;DHT22;5822;51.000;5.874;2022-10-20T02:14:32;14.80;99.90
11532;DHT22;5822;51.000;5.874;2022-10-20T02:17:02;14.90;99.90
11532;DHT22;5822;51.000;5.874;2022-10-20T02:19:34;14.80;99.90
11532;DHT22;5822;51.000;5.874;2022-10-20T02:22:00;14.80;99.90
11532;DHT22;5822;51.000;5.874;2022-10-20T02:24:29;14.90;99.90
11532;DHT22;5822;51.000;5.874;2022-10-20T02:26:58;14.80;99.90
11532;DHT22;5822;51.000;5.874;2022-10-20T02:29:29;14.80;99.90
11532;DHT22;5822;51.000;5.874;2022-10-20T02:31:58;14.80;99.90
11532;DHT22;5822;51.000;5.874;2022-10-20T02:34:25;14.90;99.90
11532;DHT22;5822;51.000;5.874;2022-10-20T02:36:55;14.80;99.90
11532;DHT22;5822;51.000;5.874;2022-10-20T02:39:21;14.80;99.90
11532;DHT22;5822;51.000;5.874;2022-10-20T02:41:46;14.90;99.90
11532;DHT22;5822;51.000;5.874;2022-10-20T02:44:12;14.90;99.90
11532;DHT22;5822;51.000;5.874;2022-10-20T02:46:37;15.00;99.90
11532;DHT22;5822;51.000;5.874;2022-10-20T02:49:03;15.00;99.90
11532;DHT22;5822;51.000;5.874;2022-10-20T02:51:29;15.00;99.90
11532;DHT22;5822;51.000;5.874;2022-10-20T02:53:54;15.00;99.90
11532;DHT22;5822;51.000;5.874;2022-10-20T02:56:20;15.10;99.90
11532;DHT22;5822;51.000;5.874;2022-10-20T02:58:47;15.10;99.90
11532;DHT22;5822;51.000;5.874;2022-10-20T03:01:12;15.20;99.90
11532;DHT22;5822;51.000;5.874;2022-10-20T03:03:38;15.10;99.90
11532;DHT22;5822;51.000;5.874;2022-10-20T03:06:22;15.20;99.90
11532;DHT22;5822;51.000;5.874;2022-10-20T03:08:47;15.20;99.90
11532;DHT22;5822;51.000;5.874;2022-10-20T03:11:13;15.20;99.90
11532;DHT22;5822;51.000;5.874;2022-10-20T03:13:38;15.10;99.90
11532;DHT22;5822;51.000;5.874;2022-10-20T03:16:04;15.20;99.90
11532;DHT22;5822;51.000;5.874;2022-10-20T03:18:30;15.20;99.90
11532;DHT22;5822;51.000;5.874;2022-10-20T03:20:55;15.20;99.90
11532;DHT22;5822;51.000;5.874;2022-10-20T03:23:21;15.10;99.90
11532;DHT22;5822;51.000;5.874;2022-10-20T03:25:47;15.10;99.90
11532;DHT22;5822;51.000;5.874;2022-10-20T03:28:13;15.00;99.90
11532;DHT22;5822;51.000;5.874;2022-10-20T03:30:38;15.10;99.90
11532;DHT22;5822;51.000;5.874;2022-10-20T03:33:04;15.10;99.90
11532;DHT22;5822;51.000;5.874;2022-10-20T03:35:30;15.10;99.90
11532;DHT22;5822;51.000;5.874;2022-10-20T03:37:55;15.10;99.90
11532;DHT22;5822;51.000;5.874;2022-10-20T03:40:21;15.20;99.90
11532;DHT22;5822;51.000;5.874;2022-10-20T03:42:47;15.20;99.90
11532;DHT22;5822;51.000;5.874;2022-10-20T03:45:12;15.20;99.90
11532;DHT22;5822;51.000;5.874;2022-10-20T03:47:38;15.20;99.90
11532;DHT22;5822;51.000;5.874;2022-10-20T03:50:04;15.10;99.90
11532;DHT22;5822;51.000;5.874;2022-10-20T03:52:30;15.10;99.90
11532;DHT22;5822;51.000;5.874;2022-10-20T03:54:55;15.10;99.90
11532;DHT22;5822;51.000;5.874;2022-10-20T03:57:21;15.10;99.90
11532;DHT22;5822;51.000;5.874;2022-10-20T03:59:46;15.10;99.90
11532;DHT22;5822;51.000;5.874;2022-10-20T04:02:44;15.10;99.90
11532;DHT22;5822;51.000;5.874;2022-10-20T04:05:15;15.20;99.90
11532;DHT22;5822;51.000;5.874;2022-10-20T04:07:41;15.10;99.90
11532;DHT22;5822;51.000;5.874;2022-10-20T04:10:07;15.20;99.90
11532;DHT22;5822;51.000;5.874;2022-10-20T04:12:34;15.20;99.90
11532;DHT22;5822;51.000;5.874;2022-10-20T04:14:59;15.30;99.90
11532;DHT22;5822;51.000;5.874;2022-10-20T04:17:25;15.20;99.90
11532;DHT22;5822;51.000;5.874;2022-10-20T04:19:50;15.30;99.90
11532;DHT22;5822;51.000;5.874;2022-10-20T04:22:16;15.30;99.90
11532;DHT22;5822;51.000;5.874;2022-10-20T04:24:41;15.30;99.90
11532;DHT22;5822;51.000;5.874;2022-10-20T04:27:07;15.30;99.90
11532;DHT22;5822;51.000;5.874;2022-10-20T04:29:33;15.20;99.90
11532;DHT22;5822;51.000;5.874;2022-10-20T04:31:59;15.30;99.90
11532;DHT22;5822;51.000;5.874;2022-10-20T04:34:24;15.20;99.90
11532;DHT22;5822;51.000;5.874;2022-10-20T04:36:50;15.20;99.90
11532;DHT22;5822;51.000;5.874;2022-10-20T04:39:16;15.30;99.90
11532;DHT22;5822;51.000;5.874;2022-10-20T04:41:42;15.20;99.90
11532;DHT22;5822;51.000;5.874;2022-10-20T04:44:07;15.20;99.90
11532;DHT22;5822;51.000;5.874;2022-10-20T04:46:33;15.30;99.90
11532;DHT22;5822;51.000;5.874;2022-10-20T04:48:59;15.30;99.90
11532;DHT22;5822;51.000;5.874;2022-10-20T04:51:24;15.30;99.90
11532;DHT22;5822;51.000;5.874;2022-10-20T04:53:50;15.20;99.90
11532;DHT22;5822;51.000;5.874;2022-10-20T04:56:20;15.20;99.90
11532;DHT22;5822;51.000;5.874;2022-10-20T04:58:56;15.20;99.90
11532;DHT22;5822;51.000;5.874;2022-10-20T05:01:24;15.20;99.90
11532;DHT22;5822;51.000;5.874;2022-10-20T05:03:50;15.20;99.90
11532;DHT22;5822;51.000;5.874;2022-10-20T05:06:23;15.10;99.90
11532;DHT22;5822;51.000;5.874;2022-10-20T05:08:51;15.10;99.90
11532;DHT22;5822;51.000;5.874;2022-10-20T05:11:18;15.10;99.90
11532;DHT22;5822;51.000;5.874;2022-10-20T05:13:45;15.10;99.90
11532;DHT22;5822;51.000;5.874;2022-10-20T05:16:11;15.00;99.90
11532;DHT22;5822;51.000;5.874;2022-10-20T05:18:38;15.00;99.90
11532;DHT22;5822;51.000;5.874;2022-10-20T05:21:09;15.00;99.90
11532;DHT22;5822;51.000;5.874;2022-10-20T05:23:34;15.00;99.90
11532;DHT22;5822;51.000;5.874;2022-10-20T05:26:05;15.00;99.90
11532;DHT22;5822;51.000;5.874;2022-10-20T05:28:31;15.00;99.90
11532;DHT22;5822;51.000;5.874;2022-10-20T05:31:01;15.00;99.90
11532;DHT22;5822;51.000;5.874;2022-10-20T05:33:27;15.00;99.90
11532;DHT22;5822;51.000;5.874;2022-10-20T05:35:53;15.00;99.90
11532;DHT22;5822;51.000;5.874;2022-10-20T05:38:19;15.00;99.90
11532;DHT22;5822;51.000;5.874;2022-10-20T05:40:44;15.00;99.90
11532;DHT22;5822;51.000;5.874;2022-10-20T05:43:10;15.00;99.90
11532;DHT22;5822;51.000;5.874;2022-10-20T05:45:35;15.00;99.90
11532;DHT22;5822;51.000;5.874;2022-10-20T05:48:01;15.00;99.90
11532;DHT22;5822;51.000;5.874;2022-10-20T05:50:27;15.10;99.90
11532;DHT22;5822;51.000;5.874;2022-10-20T05:52:52;15.10;99.90
11532;DHT22;5822;51.000;5.874;2022-10-20T05:55:18;15.10;99.90
11532;DHT22;5822;51.000;5.874;2022-10-20T05:57:44;15.00;99.90
11532;DHT22;5822;51.000;5.874;2022-10-20T06:00:10;15.00;99.90
11532;DHT22;5822;51.000;5.874;2022-10-20T06:02:36;15.00;99.90
11532;DHT22;5822;51.000;5.874;2022-10-20T06:05:02;15.00;99.90
11532;DHT22;5822;51.000;5.874;2022-10-20T06:07:27;15.00;99.90
11532;DHT22;5822;51.000;5.874;2022-10-20T06:09:53;15.00;99.90
11532;DHT22;5822;51.000;5.874;2022-10-20T06:12:19;15.00;99.90
11532;DHT22;5822;51.000;5.874;2022-10-20T06:14:44;15.00;99.90
11532;DHT22;5822;51.000;5.874;2022-10-20T06:17:10;15.00;99.90
11532;DHT22;5822;51.000;5.874;2022-10-20T06:19:35;15.00;99.90
11532;DHT22;5822;51.000;5.874;2022-10-20T06:22:01;15.10;99.90
11532;DHT22;5822;51.000;5.874;2022-10-20T06:24:27;15.20;99.90
11532;DHT22;5822;51.000;5.874;2022-10-20T06:26:52;15.20;99.90
11532;DHT22;5822;51.000;5.874;2022-10-20T06:29:18;15.10;99.90
11532;DHT22;5822;51.000;5.874;2022-10-20T06:31:46;15.10;99.90
11532;DHT22;5822;51.000;5.874;2022-10-20T06:34:15;15.10;99.90
11532;DHT22;5822;51.000;5.874;2022-10-20T06:36:43;15.20;99.90
11532;DHT22;5822;51.000;5.874;2022-10-20T06:39:15;15.20;99.90
11532;DHT22;5822;51.000;5.874;2022-10-20T06:41:41;15.30;99.90
11532;DHT22;5822;51.000;5.874;2022-10-20T06:44:07;15.30;99.90
11532;DHT22;5822;51.000;5.874;2022-10-20T06:46:34;15.20;99.90
11532;DHT22;5822;51.000;5.874;2022-10-20T06:49:02;15.20;99.90
11532;DHT22;5822;51.000;5.874;2022-10-20T06:51:28;15.20;99.90
11532;DHT22;5822;51.000;5.874;2022-10-20T06:53:54;15.20;99.90
11532;DHT22;5822;51.000;5.874;2022-10-20T06:56:22;15.20;99.90
11532;DHT22;5822;51.000;5.874;2022-10-20T06:58:50;15.20;99.90
11532;DHT22;5822;51.000;5.874;2022-10-20T07:01:18;15.20;99.90
11532;DHT22;5822;51.000;5.874;2022-10-20T07:03:46;15.20;99.90
11532;DHT22;5822;51.000;5.874;2022-10-20T07:06:14;15.20;99.90
11532;DHT22;5822;51.000;5.874;2022-10-20T07:08:40;15.20;99.90
11532;DHT22;5822;51.000;5.874;2022-10-20T07:11:16;15.20;99.90
11532;DHT22;5822;51.000;5.874;2022-10-20T07:13:42;15.20;99.90
11532;DHT22;5822;51.000;5.874;2022-10-20T07:16:11;15.20;99.90
11532;DHT22;5822;51.000;5.874;2022-10-20T07:18:37;15.20;99.90
11532;DHT22;5822;51.000;5.874;2022-10-20T07:21:06;15.20;99.90
11532;DHT22;5822;51.000;5.874;2022-10-20T07:23:33;15.20;99.90
11532;DHT22;5822;51.000;5.874;2022-10-20T07:26:07;15.20;99.90
11532;DHT22;5822;51.000;5.874;2022-10-20T07:28:35;15.20;99.90
11532;DHT22;5822;51.000;5.874;2022-10-20T07:31:03;15.30;99.90
11532;DHT22;5822;51.000;5.874;2022-10-20T07:33:29;15.20;99.90
11532;DHT22;5822;51.000;5.874;2022-10-20T07:35:55;15.20;99.90
11532;DHT22;5822;51.000;5.874;2022-10-20T07:38:20;15.20;99.90
11532;DHT22;5822;51.000;5.874;2022-10-20T07:40:46;15.20;99.90
11532;DHT22;5822;51.000;5.874;2022-10-20T07:43:11;15.20;99.90
11532;DHT22;5822;51.000;5.874;2022-10-20T07:45:37;15.30;99.90
11532;DHT22;5822;51.000;5.874;2022-10-20T07:48:03;15.40;99.90
11532;DHT22;5822;51.000;5.874;2022-10-20T07:50:28;15.40;99.90
11532;DHT22;5822;51.000;5.874;2022-10-20T07:52:54;15.40;99.90
11532;DHT22;5822;51.000;5.874;2022-10-20T07:55:20;15.50;99.90
11532;DHT22;5822;51.000;5.874;2022-10-20T07:57:46;15.50;99.90
11532;DHT22;5822;51.000;5.874;2022-10-20T08:00:12;15.40;99.90
11532;DHT22;5822;51.000;5.874;2022-10-20T08:02:38;15.40;99.90
11532;DHT22;5822;51.000;5.874;2022-10-20T08:05:06;15.40;99.90
11532;DHT22;5822;51.000;5.874;2022-10-20T08:07:32;15.50;99.90
11532;DHT22;5822;51.000;5.874;2022-10-20T08:09:57;15.60;99.90
11532;DHT22;5822;51.000;5.874;2022-10-20T08:12:23;15.60;99.90
11532;DHT22;5822;51.000;5.874;2022-10-20T08:14:48;15.70;99.90
11532;DHT22;5822;51.000;5.874;2022-10-20T08:17:16;15.70;99.90
11532;DHT22;5822;51.000;5.874;2022-10-20T08:19:42;15.70;99.90
11532;DHT22;5822;51.000;5.874;2022-10-20T08:22:08;15.80;99.90
11532;DHT22;5822;51.000;5.874;2022-10-20T08:24:33;15.70;99.90
11532;DHT22;5822;51.000;5.874;2022-10-20T08:27:00;15.70;99.90
11532;DHT22;5822;51.000;5.874;2022-10-20T08:29:25;15.70;99.90
11532;DHT22;5822;51.000;5.874;2022-10-20T08:31:51;15.80;99.90
11532;DHT22;5822;51.000;5.874;2022-10-20T08:34:16;15.80;99.90
11532;DHT22;5822;51.000;5.874;2022-10-20T08:36:42;15.90;99.90
11532;DHT22;5822;51.000;5.874;2022-10-20T08:39:08;16.00;99.90
11532;DHT22;5822;51.000;5.874;2022-10-20T08:41:36;16.00;99.90
11532;DHT22;5822;51.000;5.874;2022-10-20T08:44:05;15.90;99.90
11532;DHT22;5822;51.000;5.874;2022-10-20T08:46:37;16.00;99.90
11532;DHT22;5822;51.000;5.874;2022-10-20T08:49:10;15.90;99.90
11532;DHT22;5822;51.000;5.874;2022-10-20T08:51:37;16.00;99.90
11532;DHT22;5822;51.000;5.874;2022-10-20T08:54:04;15.90;99.90
11532;DHT22;5822;51.000;5.874;2022-10-20T08:56:34;15.90;99.90
11532;DHT22;5822;51.000;5.874;2022-10-20T08:59:00;16.00;99.90
11532;DHT22;5822;51.000;5.874;2022-10-20T09:01:32;16.00;99.90
11532;DHT22;5822;51.000;5.874;2022-10-20T09:04:03;16.10;99.90
11532;DHT22;5822;51.000;5.874;2022-10-20T09:06:29;16.10;99.90
11532;DHT22;5822;51.000;5.874;2022-10-20T09:08:56;16.20;99.90
11532;DHT22;5822;51.000;5.874;2022-10-20T09:11:27;16.20;99.90
11532;DHT22;5822;51.000;5.874;2022-10-20T09:13:55;16.20;99.90
11532;DHT22;5822;51.000;5.874;2022-10-20T09:16:29;16.30;99.90
11532;DHT22;5822;51.000;5.874;2022-10-20T09:18:59;16.20;99.90
11532;DHT22;5822;51.000;5.874;2022-10-20T09:21:25;16.20;99.90
11532;DHT22;5822;51.000;5.874;2022-10-20T09:23:54;16.10;99.90
11532;DHT22;5822;51.000;5.874;2022-10-20T09:29:07;16.00;99.90
11532;DHT22;5822;51.000;5.874;2022-10-20T09:31:39;16.10;99.90
11532;DHT22;5822;51.000;5.874;2022-10-20T09:34:33;16.10;99.90
11532;DHT22;5822;51.000;5.874;2022-10-20T09:39:57;16.10;99.90
11532;DHT22;5822;51.000;5.874;2022-10-20T09:42:33;16.20;99.90
11532;DHT22;5822;51.000;5.874;2022-10-20T09:47:52;16.30;99.90
11532;DHT22;5822;51.000;5.874;2022-10-20T09:50:32;16.30;99.90
11532;DHT22;5822;51.000;5.874;2022-10-20T09:53:00;16.30;99.90
11532;DHT22;5822;51.000;5.874;2022-10-20T09:55:34;16.30;99.90
11532;DHT22;5822;51.000;5.874;2022-10-20T09:58:02;16.30;99.90
11532;DHT22;5822;51.000;5.874;2022-10-20T10:00:36;16.30;99.90
11532;DHT22;5822;51.000;5.874;2022-10-20T10:03:16;16.30;99.90
11532;DHT22;5822;51.000;5.874;2022-10-20T10:05:55;16.30;99.90
11532;DHT22;5822;51.000;5.874;2022-10-20T10:08:22;16.30;99.90
11532;DHT22;5822;51.000;5.874;2022-10-20T10:11:03;16.40;99.90
11532;DHT22;5822;51.000;5.874;2022-10-20T10:13:36;16.40;99.90
11532;DHT22;5822;51.000;5.874;2022-10-20T10:16:08;16.50;99.90
11532;DHT22;5822;51.000;5.874;2022-10-20T10:18:36;16.50;99.90
11532;DHT22;5822;51.000;5.874;2022-10-20T10:21:08;16.50;99.90
11532;DHT22;5822;51.000;5.874;2022-10-20T10:23:56;16.60;99.90
11532;DHT22;5822;51.000;5.874;2022-10-20T10:26:43;16.60;99.90
11532;DHT22;5822;51.000;5.874;2022-10-20T10:29:31;16.60;99.90
11532;DHT22;5822;51.000;5.874;2022-10-20T10:32:09;16.60;99.90
11532;DHT22;5822;51.000;5.874;2022-10-20T10:37:14;16.50;99.90
11532;DHT22;5822;51.000;5.874;2022-10-20T10:39:42;16.60;99.90
11532;DHT22;5822;51.000;5.874;2022-10-20T10:44:53;16.60;99.90
11532;DHT22;5822;51.000;5.874;2022-10-20T10:55:33;16.70;99.90
11532;DHT22;5822;51.000;5.874;2022-10-20T11:10:03;16.50;99.90
11532;DHT22;5822;51.000;5.874;2022-10-20T11:28:55;16.60;99.90
11532;DHT22;5822;51.000;5.874;2022-10-20T11:31:27;16.50;99.90
11532;DHT22;5822;51.000;5.874;2022-10-20T11:34:05;16.60;99.90
11532;DHT22;5822;51.000;5.874;2022-10-20T11:36:38;16.50;99.90
11532;DHT22;5822;51.000;5.874;2022-10-20T11:39:12;16.50;99.90
11532;DHT22;5822;51.000;5.874;2022-10-20T11:44:32;16.60;99.90
11532;DHT22;5822;51.000;5.874;2022-10-20T11:47:06;16.60;99.90
11532;DHT22;5822;51.000;5.874;2022-10-20T11:49:33;16.70;99.90
11532;DHT22;5822;51.000;5.874;2022-10-20T11:52:38;16.70;99.90
11532;DHT22;5822;51.000;5.874;2022-10-20T12:12:19;17.10;99.90
11532;DHT22;5822;51.000;5.874;2022-10-20T12:14:59;17.10;99.90
11532;DHT22;5822;51.000;5.874;2022-10-20T12:17:33;17.10;99.90
11532;DHT22;5822;51.000;5.874;2022-10-20T12:22:51;17.10;99.90
11532;DHT22;5822;51.000;5.874;2022-10-20T12:25:32;17.20;99.90
11532;DHT22;5822;51.000;5.874;2022-10-20T12:30:54;17.20;99.90
11532;DHT22;5822;51.000;5.874;2022-10-20T12:38:53;17.30;99.90
11532;DHT22;5822;51.000;5.874;2022-10-20T12:41:34;17.30;99.90
11532;DHT22;5822;51.000;5.874;2022-10-20T12:44:20;17.30;99.90
11532;DHT22;5822;51.000;5.874;2022-10-20T12:47:04;17.30;99.90
11532;DHT22;5822;51.000;5.874;2022-10-20T12:49:33;17.30;99.90
11532;DHT22;5822;51.000;5.874;2022-10-20T12:52:00;17.40;99.90
11532;DHT22;5822;51.000;5.874;2022-10-20T12:54:35;17.40;99.90
11532;DHT22;5822;51.000;5.874;2022-10-20T12:57:25;17.50;99.90
11532;DHT22;5822;51.000;5.874;2022-10-20T12:59:51;17.50;99.90
11532;DHT22;5822;51.000;5.874;2022-10-20T13:10:27;17.70;99.90
11532;DHT22;5822;51.000;5.874;2022-10-20T13:17:59;17.80;99.90
11532;DHT22;5822;51.000;5.874;2022-10-20T13:23:14;17.80;99.90
11532;DHT22;5822;51.000;5.874;2022-10-20T13:25:49;17.90;99.90
11532;DHT22;5822;51.000;5.874;2022-10-20T13:28:48;17.90;99.90
11532;DHT22;5822;51.000;5.874;2022-10-20T13:31:39;17.90;99.90
11532;DHT22;5822;51.000;5.874;2022-10-20T13:40:07;18.00;99.90
11532;DHT22;5822;51.000;5.874;2022-10-20T13:45:10;18.10;99.90
11532;DHT22;5822;51.000;5.874;2022-10-20T13:52:54;18.00;99.90
11532;DHT22;5822;51.000;5.874;2022-10-20T13:55:29;18.10;99.90
11532;DHT22;5822;51.000;5.874;2022-10-20T13:57:57;18.10;99.90
11532;DHT22;5822;51.000;5.874;2022-10-20T14:00:29;18.20;99.90
11532;DHT22;5822;51.000;5.874;2022-10-20T14:05:23;18.40;99.90
11532;DHT22;5822;51.000;5.874;2022-10-20T14:07:50;18.30;99.90
11532;DHT22;5822;51.000;5.874;2022-10-20T14:10:23;18.40;99.90
11532;DHT22;5822;51.000;5.874;2022-10-20T14:12:50;18.30;99.90
11532;DHT22;5822;51.000;5.874;2022-10-20T14:15:23;18.40;99.90
11532;DHT22;5822;51.000;5.874;2022-10-20T14:18:01;18.40;99.90
11532;DHT22;5822;51.000;5.874;2022-10-20T14:20:28;18.30;99.90
11532;DHT22;5822;51.000;5.874;2022-10-20T14:22:57;18.30;99.90
11532;DHT22;5822;51.000;5.874;2022-10-20T14:25:24;18.30;99.90
11532;DHT22;5822;51.000;5.874;2022-10-20T14:27:50;18.30;99.90
11532;DHT22;5822;51.000;5.874;2022-10-20T14:30:18;18.30;99.90
11532;DHT22;5822;51.000;5.874;2022-10-20T14:32:45;18.30;99.90
11532;DHT22;5822;51.000;5.874;2022-10-20T14:35:31;18.30;99.90
11532;DHT22;5822;51.000;5.874;2022-10-20T14:38:05;18.30;99.90
11532;DHT22;5822;51.000;5.874;2022-10-20T14:40:35;18.40;99.90
11532;DHT22;5822;51.000;5.874;2022-10-20T14:43:11;18.30;99.90
11532;DHT22;5822;51.000;5.874;2022-10-20T14:45:37;18.30;99.90
11532;DHT22;5822;51.000;5.874;2022-10-20T14:48:06;18.40;99.90
11532;DHT22;5822;51.000;5.874;2022-10-20T14:50:37;18.60;99.90
11532;DHT22;5822;51.000;5.874;2022-10-20T14:53:38;18.80;99.90
11532;DHT22;5822;51.000;5.874;2022-10-20T14:56:22;18.80;99.90
11532;DHT22;5822;51.000;5.874;2022-10-20T14:59:00;18.80;99.90
11532;DHT22;5822;51.000;5.874;2022-10-20T15:01:28;18.70;99.90
11532;DHT22;5822;51.000;5.874;2022-10-20T15:06:38;18.50;99.90
11532;DHT22;5822;51.000;5.874;2022-10-20T15:09:04;18.50;99.90
11532;DHT22;5822;51.000;5.874;2022-10-20T15:11:30;18.60;99.90
11532;DHT22;5822;51.000;5.874;2022-10-20T15:13:58;18.70;99.90
11532;DHT22;5822;51.000;5.874;2022-10-20T15:16:45;18.70;99.90
11532;DHT22;5822;51.000;5.874;2022-10-20T15:19:15;18.60;99.90
11532;DHT22;5822;51.000;5.874;2022-10-20T15:21:50;18.70;99.90
11532;DHT22;5822;51.000;5.874;2022-10-20T15:24:17;18.70;99.90
11532;DHT22;5822;51.000;5.874;2022-10-20T15:26:43;18.60;99.90
11532;DHT22;5822;51.000;5.874;2022-10-20T15:29:09;18.50;99.90
11532;DHT22;5822;51.000;5.874;2022-10-20T15:31:35;18.50;99.90
11532;DHT22;5822;51.000;5.874;2022-10-20T15:34:00;18.40;99.90
11532;DHT22;5822;51.000;5.874;2022-10-20T15:36:29;18.40;99.90
11532;DHT22;5822;51.000;5.874;2022-10-20T15:38:58;18.30;99.90
11532;DHT22;5822;51.000;5.874;2022-10-20T15:41:26;18.20;99.90
11532;DHT22;5822;51.000;5.874;2022-10-20T15:43:52;18.20;99.90
11532;DHT22;5822;51.000;5.874;2022-10-20T15:46:19;18.20;99.90
11532;DHT22;5822;51.000;5.874;2022-10-20T15:48:44;18.30;99.90
11532;DHT22;5822;51.000;5.874;2022-10-20T15:51:26;18.30;99.90
11532;DHT22;5822;51.000;5.874;2022-10-20T15:53:52;18.30;99.90
11532;DHT22;5822;51.000;5.874;2022-10-20T15:56:19;18.30;99.90
11532;DHT22;5822;51.000;5.874;2022-10-20T15:58:45;18.30;99.90
11532;DHT22;5822;51.000;5.874;2022-10-20T16:01:13;18.30;99.90
11532;DHT22;5822;51.000;5.874;2022-10-20T16:03:41;18.30;99.90
11532;DHT22;5822;51.000;5.874;2022-10-20T16:06:11;18.30;99.90
11532;DHT22;5822;51.000;5.874;2022-10-20T16:08:41;18.30;99.90
11532;DHT22;5822;51.000;5.874;2022-10-20T16:11:07;18.30;99.90
11532;DHT22;5822;51.000;5.874;2022-10-20T16:13:34;18.30;99.90
11532;DHT22;5822;51.000;5.874;2022-10-20T16:16:00;18.30;99.90
11532;DHT22;5822;51.000;5.874;2022-10-20T16:18:26;18.30;99.90
11532;DHT22;5822;51.000;5.874;2022-10-20T16:20:52;18.30;99.90
11532;DHT22;5822;51.000;5.874;2022-10-20T16:23:17;18.40;99.90
11532;DHT22;5822;51.000;5.874;2022-10-20T16:25:43;18.40;99.90
11532;DHT22;5822;51.000;5.874;2022-10-20T16:28:09;18.40;99.90
11532;DHT22;5822;51.000;5.874;2022-10-20T16:30:35;18.30;99.90
11532;DHT22;5822;51.000;5.874;2022-10-20T16:33:01;18.30;99.90
11532;DHT22;5822;51.000;5.874;2022-10-20T16:35:26;18.30;99.90
11532;DHT22;5822;51.000;5.874;2022-10-20T16:37:52;18.20;99.90
11532;DHT22;5822;51.000;5.874;2022-10-20T16:40:18;18.20;99.90
11532;DHT22;5822;51.000;5.874;2022-10-20T16:42:44;18.20;99.90
11532;DHT22;5822;51.000;5.874;2022-10-20T16:45:09;18.20;99.90
11532;DHT22;5822;51.000;5.874;2022-10-20T16:47:35;18.20;99.90
11532;DHT22;5822;51.000;5.874;2022-10-20T16:50:01;18.20;99.90
11532;DHT22;5822;51.000;5.874;2022-10-20T16:52:27;18.20;99.90
11532;DHT22;5822;51.000;5.874;2022-10-20T16:54:52;18.10;99.90
11532;DHT22;5822;51.000;5.874;2022-10-20T16:57:18;18.20;99.90
11532;DHT22;5822;51.000;5.874;2022-10-20T16:59:44;18.20;99.90
11532;DHT22;5822;51.000;5.874;2022-10-20T17:02:15;18.20;99.90
11532;DHT22;5822;51.000;5.874;2022-10-20T17:04:42;18.20;99.90
11532;DHT22;5822;51.000;5.874;2022-10-20T17:07:09;18.10;99.90
11532;DHT22;5822;51.000;5.874;2022-10-20T17:09:35;18.10;99.90
11532;DHT22;5822;51.000;5.874;2022-10-20T17:12:00;18.10;99.90
11532;DHT22;5822;51.000;5.874;2022-10-20T17:14:26;18.10;99.90
11532;DHT22;5822;51.000;5.874;2022-10-20T17:16:51;18.10;99.90
11532;DHT22;5822;51.000;5.874;2022-10-20T17:19:17;18.10;99.90
11532;DHT22;5822;51.000;5.874;2022-10-20T17:21:43;18.10;99.90
11532;DHT22;5822;51.000;5.874;2022-10-20T17:24:10;18.10;99.90
11532;DHT22;5822;51.000;5.874;2022-10-20T17:26:37;18.00;99.90
11532;DHT22;5822;51.000;5.874;2022-10-20T17:29:03;18.00;99.90
11532;DHT22;5822;51.000;5.874;2022-10-20T17:31:29;18.00;99.90
11532;DHT22;5822;51.000;5.874;2022-10-20T17:33:56;18.00;99.90
11532;DHT22;5822;51.000;5.874;2022-10-20T17:36:23;18.00;99.90
11532;DHT22;5822;51.000;5.874;2022-10-20T17:38:59;18.00;99.90
11532;DHT22;5822;51.000;5.874;2022-10-20T17:41:25;17.90;99.90
11532;DHT22;5822;51.000;5.874;2022-10-20T17:43:50;17.90;99.90
11532;DHT22;5822;51.000;5.874;2022-10-20T17:46:18;17.90;99.90
11532;DHT22;5822;51.000;5.874;2022-10-20T17:48:45;17.90;99.90
11532;DHT22;5822;51.000;5.874;2022-10-20T17:51:14;17.90;99.90
11532;DHT22;5822;51.000;5.874;2022-10-20T17:53:42;17.90;99.90
11532;DHT22;5822;51.000;5.874;2022-10-20T17:56:12;17.90;99.90
11532;DHT22;5822;51.000;5.874;2022-10-20T17:58:38;17.90;99.90
11532;DHT22;5822;51.000;5.874;2022-10-20T18:01:12;17.90;99.90
11532;DHT22;5822;51.000;5.874;2022-10-20T18:03:39;17.90;99.90
11532;DHT22;5822;51.000;5.874;2022-10-20T18:06:06;17.90;99.90
11532;DHT22;5822;51.000;5.874;2022-10-20T18:08:32;17.90;99.90
11532;DHT22;5822;51.000;5.874;2022-10-20T18:10:57;17.90;99.90